Time;durP1;ratioP1;P1;durP2;ratioP2;P2;SDS_P1;SDS_P2;PMS_P1;PMS_P2;Temp;Humidity;BMP_temperature;BMP_pressure;BME280_temperature;BME280_humidity;BME280_pressure;Samples;Min_cycle;Max_cycle;Signal;HPM_P1;HPM_P2
2021/10/29 00:00:59;;;;;;;37.13;23.10;;;9.80;99.90;;;;;;5048116;28;20402;-90
2021/10/29 00:03:26;;;;;;;34.97;23.40;;;9.70;99.90;;;;;;5048802;28;20047;-87
2021/10/29 00:05:52;;;;;;;33.75;22.15;;;9.70;99.90;;;;;;5061261;28;20554;-87
2021/10/29 00:08:17;;;;;;;35.78;23.02;;;9.70;99.90;;;;;;5065364;28;20043;-88
2021/10/29 00:10:44;;;;;;;34.55;22.85;;;9.60;99.90;;;;;;5084436;28;20139;-88
2021/10/29 00:13:10;;;;;;;37.15;22.95;;;9.70;99.90;;;;;;5065034;28;20121;-87
2021/10/29 00:15:35;;;;;;;34.45;22.95;;;9.60;99.90;;;;;;5076186;28;20070;-86
2021/10/29 00:18:01;;;;;;;37.63;23.90;;;9.60;99.90;;;;;;5074905;28;20064;-85
2021/10/29 00:20:27;;;;;;;33.70;23.02;;;9.60;99.90;;;;;;5095620;28;20035;-86
2021/10/29 00:22:53;;;;;;;39.20;22.75;;;9.60;99.90;;;;;;5064388;28;20036;-85
2021/10/29 00:25:19;;;;;;;37.83;23.02;;;9.60;99.90;;;;;;5063960;28;20612;-88
2021/10/29 00:27:45;;;;;;;32.58;21.65;;;9.60;99.90;;;;;;5046271;28;20131;-87
2021/10/29 00:30:11;;;;;;;33.95;21.48;;;9.60;99.90;;;;;;5078247;28;21690;-87
2021/10/29 00:32:37;;;;;;;33.88;22.73;;;9.60;99.90;;;;;;5063141;28;20124;-89
2021/10/29 00:35:04;;;;;;;34.63;21.95;;;9.50;99.90;;;;;;5075460;28;20115;-86
2021/10/29 00:37:37;;;;;;;38.50;22.83;;;9.50;99.90;;;;;;5080486;28;20136;-87
2021/10/29 00:40:05;;;;;;;37.28;23.98;;;9.50;99.90;;;;;;5110918;27;20119;-85
2021/10/29 00:42:30;;;;;;;39.92;23.35;;;9.50;99.90;;;;;;5080252;28;20048;-86
2021/10/29 00:44:56;;;;;;;34.75;23.08;;;9.50;99.90;;;;;;5063846;28;20036;-89
2021/10/29 00:47:23;;;;;;;35.75;23.08;;;9.50;99.90;;;;;;5055926;28;20039;-88
2021/10/29 00:49:48;;;;;;;35.35;22.73;;;9.50;99.90;;;;;;5067327;28;20119;-88
2021/10/29 00:52:15;;;;;;;35.42;21.50;;;9.50;99.90;;;;;;5047058;28;20148;-88
2021/10/29 00:54:41;;;;;;;32.78;22.08;;;9.50;99.90;;;;;;5045845;28;20517;-89
2021/10/29 00:57:07;;;;;;;34.63;22.00;;;9.50;99.90;;;;;;5065646;28;20348;-85
2021/10/29 00:59:33;;;;;;;38.80;22.17;;;9.50;99.90;;;;;;5077625;28;20402;-87
2021/10/29 01:01:59;;;;;;;34.40;21.40;;;9.40;99.90;;;;;;5074431;28;20047;-87
2021/10/29 01:04:26;;;;;;;36.83;22.58;;;9.40;99.90;;;;;;5060566;28;20043;-89
2021/10/29 01:06:53;;;;;;;39.22;22.23;;;9.40;99.90;;;;;;5079816;28;20059;-88
2021/10/29 01:09:19;;;;;;;36.10;22.67;;;9.40;99.90;;;;;;5062688;28;20127;-87
2021/10/29 01:11:45;;;;;;;34.65;22.58;;;9.40;99.90;;;;;;5063356;28;20119;-87
2021/10/29 01:14:11;;;;;;;37.53;23.35;;;9.40;99.90;;;;;;5044306;28;20071;-88
2021/10/29 01:16:37;;;;;;;38.45;23.23;;;9.40;99.90;;;;;;5076613;28;20040;-88
2021/10/29 01:19:03;;;;;;;40.13;24.10;;;9.40;99.90;;;;;;5062618;28;20042;-88
2021/10/29 01:21:29;;;;;;;36.58;22.77;;;9.40;99.90;;;;;;5063377;28;20101;-86
2021/10/29 01:23:55;;;;;;;37.20;22.48;;;9.40;99.90;;;;;;5067260;28;20040;-87
2021/10/29 01:26:21;;;;;;;32.75;22.20;;;9.30;99.90;;;;;;5030019;28;20441;-89
2021/10/29 01:28:47;;;;;;;37.47;23.52;;;9.30;99.90;;;;;;5049074;28;20063;-88
2021/10/29 01:31:15;;;;;;;35.53;22.45;;;9.30;99.90;;;;;;5061919;28;20029;-89
2021/10/29 01:33:42;;;;;;;41.05;22.92;;;9.30;99.90;;;;;;5108641;27;20066;-85
2021/10/29 01:36:08;;;;;;;37.90;23.08;;;9.30;99.90;;;;;;5064925;28;20040;-87
2021/10/29 01:38:42;;;;;;;37.28;23.17;;;9.30;99.90;;;;;;5105540;27;20039;-88
2021/10/29 01:41:09;;;;;;;39.10;22.13;;;9.30;99.90;;;;;;5056629;28;20072;-90
2021/10/29 01:43:40;;;;;;;38.83;21.98;;;9.30;99.90;;;;;;5077709;28;20537;-86
2021/10/29 01:46:06;;;;;;;36.50;21.55;;;9.30;99.90;;;;;;5061194;28;20039;-90
2021/10/29 01:48:32;;;;;;;38.85;23.65;;;9.30;99.90;;;;;;5116757;27;20525;-88
2021/10/29 01:50:58;;;;;;;30.60;20.10;;;9.30;99.90;;;;;;5061590;28;20028;-88
2021/10/29 01:53:23;;;;;;;36.15;21.75;;;9.30;99.90;;;;;;5053869;28;20082;-87
2021/10/29 01:55:49;;;;;;;39.40;22.48;;;9.30;99.90;;;;;;5044968;28;20044;-87
2021/10/29 01:58:16;;;;;;;37.20;22.63;;;9.30;99.90;;;;;;5061401;28;20555;-88
2021/10/29 02:00:42;;;;;;;37.17;21.45;;;9.30;99.90;;;;;;5059797;28;20040;-87
2021/10/29 02:03:07;;;;;;;32.72;21.17;;;9.30;99.90;;;;;;5091862;27;20035;-88
2021/10/29 02:05:33;;;;;;;38.10;21.35;;;9.20;99.90;;;;;;5049973;28;20040;-87
2021/10/29 02:07:59;;;;;;;35.53;21.80;;;9.20;99.90;;;;;;5064353;28;20046;-88
2021/10/29 02:10:25;;;;;;;33.47;20.80;;;9.20;99.90;;;;;;5048662;28;20509;-87
2021/10/29 02:12:50;;;;;;;34.72;21.58;;;9.20;99.90;;;;;;5079712;28;20090;-86
2021/10/29 02:15:16;;;;;;;31.05;20.30;;;9.20;99.90;;;;;;5079445;28;20414;-87
2021/10/29 02:17:42;;;;;;;34.28;21.80;;;9.20;99.90;;;;;;5051688;28;20046;-88
2021/10/29 02:20:09;;;;;;;38.30;21.70;;;9.20;99.90;;;;;;5095475;28;20044;-88
2021/10/29 02:22:34;;;;;;;36.15;20.67;;;9.20;99.90;;;;;;5046791;28;20450;-87
2021/10/29 02:25:00;;;;;;;39.05;23.67;;;9.10;99.90;;;;;;5065924;28;20050;-88
2021/10/29 02:27:26;;;;;;;35.35;20.75;;;9.20;99.90;;;;;;5077480;28;20032;-86
2021/10/29 02:29:51;;;;;;;35.28;21.85;;;9.10;99.90;;;;;;5076152;28;20432;-87
2021/10/29 02:32:17;;;;;;;36.28;22.27;;;9.10;99.90;;;;;;5052446;28;20032;-88
2021/10/29 02:34:43;;;;;;;32.38;21.17;;;9.10;99.90;;;;;;5097056;28;20037;-88
2021/10/29 02:37:09;;;;;;;35.83;20.80;;;9.10;99.90;;;;;;5070580;28;20538;-89
2021/10/29 02:39:35;;;;;;;34.80;20.80;;;9.10;99.90;;;;;;5073558;28;20051;-89
2021/10/29 02:42:04;;;;;;;33.10;21.20;;;9.10;99.90;;;;;;5080401;28;20044;-89
2021/10/29 02:44:30;;;;;;;31.77;20.40;;;9.10;99.90;;;;;;5084734;28;20036;-89
2021/10/29 02:46:56;;;;;;;34.28;20.77;;;9.10;99.90;;;;;;5064781;28;20031;-87
2021/10/29 02:49:22;;;;;;;32.70;19.98;;;9.10;99.90;;;;;;5057224;28;20100;-87
2021/10/29 02:51:48;;;;;;;34.00;19.95;;;9.10;99.90;;;;;;5099862;28;20402;-86
2021/10/29 02:54:13;;;;;;;37.17;20.02;;;9.10;99.90;;;;;;5062571;28;20054;-85
2021/10/29 02:56:39;;;;;;;35.80;20.20;;;9.10;99.90;;;;;;5061815;28;20287;-87
2021/10/29 02:59:05;;;;;;;33.40;19.73;;;9.10;99.90;;;;;;5066098;28;20032;-86
2021/10/29 03:01:31;;;;;;;31.50;19.73;;;9.10;99.90;;;;;;5079347;28;20093;-85
2021/10/29 03:03:56;;;;;;;31.70;19.80;;;9.10;99.90;;;;;;5060198;28;20036;-84
2021/10/29 03:06:22;;;;;;;30.33;18.80;;;9.10;99.90;;;;;;5059139;28;20123;-87
2021/10/29 03:08:48;;;;;;;34.30;19.33;;;9.10;99.90;;;;;;5060732;28;20066;-86
2021/10/29 03:11:14;;;;;;;37.85;21.17;;;9.10;99.90;;;;;;5044587;28;20139;-87
2021/10/29 03:13:39;;;;;;;38.30;21.27;;;9.10;99.90;;;;;;5050314;28;20067;-87
2021/10/29 03:16:05;;;;;;;36.00;20.67;;;9.10;99.90;;;;;;5045270;28;20161;-87
2021/10/29 03:18:31;;;;;;;32.58;20.05;;;9.10;99.90;;;;;;5061698;28;20033;-86
2021/10/29 03:20:57;;;;;;;29.90;19.50;;;9.10;99.90;;;;;;5096326;27;20368;-86
2021/10/29 03:23:23;;;;;;;31.63;19.48;;;9.10;99.90;;;;;;5058184;28;20071;-86
2021/10/29 03:25:48;;;;;;;33.28;19.33;;;9.10;99.90;;;;;;5061460;28;20032;-86
2021/10/29 03:28:14;;;;;;;27.70;17.65;;;9.10;99.90;;;;;;5066852;28;20040;-86
2021/10/29 03:30:41;;;;;;;31.20;19.48;;;9.10;99.90;;;;;;5074274;28;20551;-85
2021/10/29 03:33:07;;;;;;;34.10;19.60;;;9.10;99.90;;;;;;5095827;28;20093;-87
2021/10/29 03:35:32;;;;;;;34.45;19.15;;;9.10;99.90;;;;;;5057654;28;20047;-87
2021/10/29 03:38:08;;;;;;;31.85;18.08;;;9.10;99.90;;;;;;5048847;28;20445;-86
2021/10/29 03:40:58;;;;;;;28.92;17.58;;;9.10;99.90;;;;;;5088183;28;20411;-86
2021/10/29 03:43:37;;;;;;;31.17;17.75;;;9.10;99.90;;;;;;5105933;27;20040;-86
2021/10/29 03:46:08;;;;;;;31.40;19.08;;;9.10;99.90;;;;;;5073291;28;20036;-86
2021/10/29 03:53:56;;;;;;;31.13;17.47;;;9.10;99.90;;;;;;5043256;28;20094;-85
2021/10/29 03:56:24;;;;;;;31.37;18.13;;;9.10;99.90;;;;;;5076294;28;20796;-86
2021/10/29 03:58:52;;;;;;;29.05;17.08;;;9.20;99.90;;;;;;5080551;28;20047;-86
2021/10/29 04:01:18;;;;;;;27.60;17.30;;;9.20;99.90;;;;;;5045104;28;20040;-88
2021/10/29 04:03:44;;;;;;;26.10;16.88;;;9.20;99.90;;;;;;5045137;28;20040;-86
2021/10/29 04:06:10;;;;;;;27.95;18.25;;;9.10;99.90;;;;;;5048363;28;20028;-85
2021/10/29 04:08:37;;;;;;;28.88;16.85;;;9.10;99.90;;;;;;5061951;28;20031;-85
2021/10/29 04:11:03;;;;;;;26.60;17.17;;;9.10;99.90;;;;;;5073016;28;20124;-86
2021/10/29 04:13:34;;;;;;;33.00;17.30;;;9.20;99.90;;;;;;5077828;28;20527;-87
2021/10/29 04:16:02;;;;;;;25.02;16.95;;;9.20;99.90;;;;;;5095729;27;20050;-86
2021/10/29 04:18:28;;;;;;;26.17;16.65;;;9.10;99.90;;;;;;5075792;28;20031;-85
2021/10/29 04:20:55;;;;;;;26.83;16.45;;;9.10;99.90;;;;;;5089000;28;20040;-85
2021/10/29 04:23:20;;;;;;;26.45;17.38;;;9.10;99.90;;;;;;5078976;28;20046;-85
2021/10/29 04:25:46;;;;;;;26.33;17.00;;;9.10;99.90;;;;;;5078264;28;20589;-86
2021/10/29 04:28:12;;;;;;;26.27;16.70;;;9.10;99.90;;;;;;5041863;28;20121;-86
2021/10/29 04:30:43;;;;;;;28.90;17.38;;;9.10;99.90;;;;;;5074522;28;20036;-86
2021/10/29 04:33:11;;;;;;;28.55;17.40;;;9.10;99.90;;;;;;5058403;28;20090;-87
2021/10/29 04:35:43;;;;;;;24.98;17.20;;;9.10;99.90;;;;;;5076267;28;20043;-87
2021/10/29 04:38:09;;;;;;;;;;;9.10;99.90;;;;;;5071509;28;20040;-86
2021/10/29 04:40:37;;;;;;;25.63;15.63;;;9.10;99.90;;;;;;5081156;28;19946;-87
2021/10/29 04:43:04;;;;;;;25.17;16.38;;;9.10;99.90;;;;;;5073350;28;20537;-85
2021/10/29 04:45:31;;;;;;;26.20;16.83;;;9.10;99.90;;;;;;5069058;28;20051;-86
2021/10/29 04:47:57;;;;;;;28.60;17.35;;;9.10;99.90;;;;;;5053656;28;20039;-85
2021/10/29 04:50:23;;;;;;;26.17;15.57;;;9.10;99.90;;;;;;5038043;28;20188;-85
2021/10/29 04:52:48;;;;;;;25.55;16.00;;;9.00;99.90;;;;;;5083264;28;20049;-86
2021/10/29 04:55:14;;;;;;;29.50;17.45;;;9.10;99.90;;;;;;5064818;28;20044;-86
2021/10/29 04:57:40;;;;;;;23.95;15.73;;;9.00;99.90;;;;;;5086414;28;20127;-88
2021/10/29 05:00:08;;;;;;;25.98;16.65;;;9.00;99.90;;;;;;5065499;28;20047;-86
2021/10/29 05:02:34;;;;;;;27.17;17.02;;;9.00;99.90;;;;;;5032053;28;20545;-86
2021/10/29 05:05:03;;;;;;;24.50;14.30;;;9.00;99.90;;;;;;5060365;28;20517;-86
2021/10/29 05:07:29;;;;;;;29.25;16.65;;;9.00;99.90;;;;;;5114882;27;20036;-87
2021/10/29 05:09:55;;;;;;;28.80;16.25;;;9.00;99.90;;;;;;5080546;28;20066;-85
2021/10/29 05:12:21;;;;;;;25.38;16.10;;;9.00;99.90;;;;;;5073677;28;20039;-84
2021/10/29 05:14:46;;;;;;;23.33;15.30;;;9.00;99.90;;;;;;5077795;28;20064;-86
2021/10/29 05:17:12;;;;;;;32.10;16.45;;;9.00;99.90;;;;;;5063845;28;20040;-87
2021/10/29 05:19:39;;;;;;;29.80;15.93;;;9.00;99.90;;;;;;5044271;28;20368;-86
2021/10/29 05:22:05;;;;;;;28.60;15.95;;;9.00;99.90;;;;;;5097853;28;20047;-87
2021/10/29 05:24:30;;;;;;;27.90;16.63;;;9.00;99.90;;;;;;5063714;28;20047;-86
2021/10/29 05:26:56;;;;;;;26.33;16.40;;;9.00;99.90;;;;;;5064723;28;20379;-84
2021/10/29 05:29:23;;;;;;;25.83;15.75;;;9.00;99.90;;;;;;5062308;28;20036;-88
2021/10/29 05:31:50;;;;;;;22.42;14.30;;;9.00;99.90;;;;;;5048357;28;20088;-85
2021/10/29 05:34:17;;;;;;;26.17;15.63;;;9.00;99.90;;;;;;5114980;27;20138;-86
2021/10/29 05:36:43;;;;;;;29.77;15.73;;;8.90;99.90;;;;;;5101167;28;20385;-84
2021/10/29 05:39:10;;;;;;;30.05;15.45;;;8.90;99.90;;;;;;5069318;28;20043;-86
2021/10/29 05:41:36;;;;;;;25.60;15.40;;;8.90;99.90;;;;;;5053837;28;20051;-87
2021/10/29 05:44:02;;;;;;;26.98;15.52;;;8.90;99.90;;;;;;5068318;28;20028;-87
2021/10/29 05:46:31;;;;;;;24.98;15.60;;;8.90;99.90;;;;;;5070513;28;20403;-89
2021/10/29 05:48:58;;;;;;;23.63;15.50;;;8.90;99.90;;;;;;5071108;28;20044;-87
2021/10/29 05:51:25;;;;;;;30.52;15.25;;;9.00;99.90;;;;;;5103319;27;20024;-88
2021/10/29 05:54:04;;;;;;;21.85;15.02;;;8.90;99.90;;;;;;5067844;28;20051;-87
2021/10/29 05:56:30;;;;;;;24.02;14.93;;;9.00;99.90;;;;;;5083826;28;20043;-89
2021/10/29 05:58:56;;;;;;;23.90;14.20;;;9.00;99.90;;;;;;5037764;28;20056;-88
2021/10/29 06:01:22;;;;;;;23.55;13.75;;;9.00;99.90;;;;;;5062432;28;20123;-88
2021/10/29 06:03:48;;;;;;;24.85;14.82;;;9.00;99.90;;;;;;5052594;28;20136;-88
2021/10/29 06:06:13;;;;;;;22.27;13.35;;;9.10;99.90;;;;;;5066934;28;20029;-87
2021/10/29 06:08:39;;;;;;;20.92;14.10;;;9.10;99.90;;;;;;5039821;28;20105;-86
2021/10/29 06:11:05;;;;;;;29.23;14.80;;;9.10;99.90;;;;;;5072423;28;20042;-90
2021/10/29 06:13:31;;;;;;;24.70;13.98;;;9.10;99.90;;;;;;5063695;28;20044;-88
2021/10/29 06:15:56;;;;;;;22.92;14.70;;;9.10;99.90;;;;;;5056487;28;20038;-85
2021/10/29 06:18:27;;;;;;;22.67;14.50;;;9.10;99.90;;;;;;5084544;28;20028;-88
2021/10/29 06:20:54;;;;;;;23.75;14.20;;;9.10;99.90;;;;;;5069788;28;21253;-87
2021/10/29 06:23:25;;;;;;;21.45;14.15;;;9.10;99.90;;;;;;5070200;28;20287;-85
2021/10/29 06:25:51;;;;;;;23.77;14.65;;;9.10;99.90;;;;;;5092647;28;20027;-86
2021/10/29 06:28:23;;;;;;;23.10;13.23;;;9.10;99.90;;;;;;5086921;28;20032;-85
2021/10/29 06:30:49;;;;;;;27.60;14.15;;;9.10;99.90;;;;;;5054664;28;20032;-88
2021/10/29 06:33:20;;;;;;;22.75;14.55;;;9.10;99.90;;;;;;5071453;28;20028;-85
2021/10/29 06:35:47;;;;;;;22.70;14.05;;;9.10;99.90;;;;;;5086329;28;20040;-85
2021/10/29 06:38:15;;;;;;;19.63;13.40;;;9.10;99.90;;;;;;5084864;28;20556;-87
2021/10/29 06:40:44;;;;;;;21.92;13.60;;;9.10;99.90;;;;;;5052134;28;20032;-87
2021/10/29 06:43:38;;;;;;;20.88;13.80;;;9.10;99.90;;;;;;5081805;28;20083;-88
2021/10/29 07:01:50;;;;;;;23.38;13.38;;;9.10;99.90;;;;;;5069460;28;20040;-87
2021/10/29 07:04:39;;;;;;;18.75;13.15;;;9.10;99.90;;;;;;5074395;28;20043;-92
2021/10/29 07:40:12;;;;;;;26.02;13.40;;;9.50;99.90;;;;;;5079926;28;20051;-86
2021/10/29 07:42:52;;;;;;;19.70;12.07;;;9.50;99.90;;;;;;5076259;28;20032;-86
2021/10/29 07:45:20;;;;;;;21.58;13.50;;;9.60;99.90;;;;;;5066276;28;20490;-86
2021/10/29 07:47:46;;;;;;;20.00;13.05;;;9.60;99.90;;;;;;5084478;28;20113;-86
2021/10/29 07:50:14;;;;;;;20.73;12.98;;;9.70;99.90;;;;;;5083556;28;20151;-87
2021/10/29 07:52:42;;;;;;;21.60;13.57;;;9.80;99.90;;;;;;5094219;27;20482;-87
2021/10/29 07:55:10;;;;;;;20.38;12.85;;;9.80;99.90;;;;;;5084630;28;20036;-85
2021/10/29 07:57:37;;;;;;;18.88;12.73;;;9.90;99.90;;;;;;5086405;28;20062;-89
2021/10/29 08:00:06;;;;;;;24.40;12.60;;;9.90;99.90;;;;;;5062417;28;20494;-87
2021/10/29 08:02:34;;;;;;;21.00;13.30;;;10.00;99.90;;;;;;5068132;28;20043;-88
2021/10/29 08:05:00;;;;;;;22.02;12.82;;;10.10;99.90;;;;;;5083971;28;20078;-86
2021/10/29 08:07:27;;;;;;;20.13;11.75;;;10.10;99.90;;;;;;5063963;28;20371;-86
2021/10/29 08:09:53;;;;;;;21.95;12.50;;;10.20;99.90;;;;;;5086624;27;20031;-84
2021/10/29 08:12:20;;;;;;;18.10;12.52;;;10.30;99.90;;;;;;5031137;28;20033;-87
2021/10/29 08:14:47;;;;;;;20.15;12.27;;;10.30;99.90;;;;;;5070234;28;20172;-84
2021/10/29 08:17:18;;;;;;;23.02;12.23;;;10.40;99.90;;;;;;5065660;28;20036;-86
2021/10/29 08:19:45;;;;;;;20.90;12.38;;;10.50;99.90;;;;;;5051316;28;20474;-86
2021/10/29 08:22:11;;;;;;;19.50;13.00;;;10.50;99.90;;;;;;5066379;28;20064;-87
2021/10/29 08:24:38;;;;;;;17.45;12.25;;;10.60;99.90;;;;;;5082170;28;20132;-87
2021/10/29 08:27:11;;;;;;;20.35;11.23;;;10.60;99.90;;;;;;5079499;28;20044;-83
2021/10/29 08:29:38;;;;;;;17.30;12.20;;;10.70;99.90;;;;;;5056737;28;20078;-87
2021/10/29 08:32:05;;;;;;;14.82;10.50;;;10.80;99.90;;;;;;5081877;28;20089;-85
2021/10/29 08:34:31;;;;;;;18.23;11.82;;;10.80;99.90;;;;;;5067320;28;20062;-86
2021/10/29 08:37:02;;;;;;;18.20;12.00;;;10.90;99.90;;;;;;5064397;28;20047;-85
2021/10/29 08:39:37;;;;;;;17.55;11.55;;;11.00;99.90;;;;;;5084326;28;20040;-85
2021/10/29 08:42:04;;;;;;;20.38;11.10;;;11.00;99.90;;;;;;5061217;28;20043;-86
2021/10/29 08:44:34;;;;;;;19.50;11.30;;;11.10;99.90;;;;;;5059248;28;20040;-85
2021/10/29 08:47:02;;;;;;;17.48;11.02;;;11.10;99.90;;;;;;5068802;28;20123;-86
2021/10/29 08:49:29;;;;;;;23.17;12.13;;;11.20;99.90;;;;;;5082217;28;21154;-86
2021/10/29 08:51:56;;;;;;;17.52;10.38;;;11.30;99.90;;;;;;5046969;28;20028;-86
2021/10/29 08:54:25;;;;;;;17.00;10.15;;;11.30;99.90;;;;;;5113325;27;20399;-85
2021/10/29 08:56:51;;;;;;;17.45;11.18;;;11.40;99.90;;;;;;5068294;28;20032;-85
2021/10/29 09:01:56;;;;;;;17.00;10.48;;;11.60;99.90;;;;;;5068292;28;20039;-86
2021/10/29 09:04:48;;;;;;;13.75;10.05;;;11.60;99.90;;;;;;5086883;28;20073;-85
2021/10/29 09:32:27;;;;;;;18.00;9.95;;;12.40;99.90;;;;;;5072597;28;20043;-87
2021/10/29 09:35:07;;;;;;;14.68;9.80;;;12.50;99.90;;;;;;5120031;27;20491;-88
2021/10/29 09:37:51;;;;;;;15.48;9.80;;;12.50;99.90;;;;;;5068700;28;20115;-88
2021/10/29 09:40:19;;;;;;;15.68;10.20;;;12.50;99.90;;;;;;5084553;28;20514;-87
2021/10/29 09:42:45;;;;;;;18.83;10.25;;;12.60;99.90;;;;;;5039253;28;20049;-84
2021/10/29 09:45:25;;;;;;;19.42;9.52;;;12.70;99.90;;;;;;5062008;28;20044;-87
2021/10/29 09:48:11;;;;;;;17.90;10.10;;;12.80;99.90;;;;;;5059287;28;20221;-86
2021/10/29 09:50:47;;;;;;;18.65;10.32;;;12.90;99.90;;;;;;5063092;28;20460;-85
2021/10/29 09:53:24;;;;;;;13.68;9.32;;;12.90;99.90;;;;;;5097723;28;20036;-86
2021/10/29 09:56:01;;;;;;;14.45;9.35;;;13.00;99.90;;;;;;5067776;28;20039;-88
2021/10/29 09:58:28;;;;;;;12.02;9.00;;;13.00;99.90;;;;;;5069517;28;20036;-87
2021/10/29 10:00:54;;;;;;;19.50;9.68;;;13.10;99.90;;;;;;5036332;28;20432;-86
2021/10/29 10:03:23;;;;;;;14.20;9.68;;;13.20;99.90;;;;;;5079495;28;20032;-84
2021/10/29 10:05:52;;;;;;;12.90;9.13;;;13.20;99.90;;;;;;5076531;28;20122;-87
2021/10/29 10:08:20;;;;;;;17.42;9.02;;;13.20;99.90;;;;;;5079048;28;20072;-86
2021/10/29 10:10:50;;;;;;;16.90;10.45;;;13.30;99.90;;;;;;5065503;28;20516;-84
2021/10/29 10:13:18;;;;;;;16.20;9.45;;;13.40;99.90;;;;;;5089625;28;20036;-86
2021/10/29 10:15:50;;;;;;;15.48;9.20;;;13.50;99.90;;;;;;5099457;28;20066;-85
2021/10/29 10:18:18;;;;;;;14.82;8.70;;;13.60;99.90;;;;;;5067790;28;20040;-86
2021/10/29 10:20:46;;;;;;;16.95;9.15;;;13.70;99.70;;;;;;5068130;28;20120;-86
2021/10/29 10:23:21;;;;;;;15.30;8.88;;;13.70;99.80;;;;;;5084580;28;20562;-86
2021/10/29 10:40:39;;;;;;;14.10;8.63;;;14.10;98.20;;;;;;5083379;28;20036;-88
2021/10/29 10:49:09;;;;;;;13.15;8.45;;;14.30;97.80;;;;;;5083176;28;20040;-88
2021/10/29 10:54:44;;;;;;;14.85;8.32;;;14.40;97.80;;;;;;5088434;28;20044;-85
2021/10/29 10:57:44;;;;;;;15.18;8.43;;;14.40;97.20;;;;;;5063827;28;20047;-83
2021/10/29 11:00:17;;;;;;;14.18;8.60;;;14.50;97.20;;;;;;5069135;28;20119;-86
2021/10/29 11:11:19;;;;;;;13.82;8.93;;;14.70;96.60;;;;;;5073830;28;20126;-85
2021/10/29 11:13:58;;;;;;;13.52;8.45;;;14.70;96.60;;;;;;5086791;28;20085;-85
2021/10/29 11:16:26;;;;;;;13.20;8.13;;;14.70;96.40;;;;;;5104475;27;20036;-84
2021/10/29 11:19:12;;;;;;;14.23;8.95;;;14.80;96.30;;;;;;5102672;28;20071;-83
2021/10/29 11:21:52;;;;;;;15.27;8.23;;;14.80;96.40;;;;;;5067042;28;20032;-84
2021/10/29 11:24:32;;;;;;;18.15;9.05;;;14.90;96.40;;;;;;5100374;27;20044;-84
2021/10/29 11:27:15;;;;;;;11.68;8.20;;;14.90;96.70;;;;;;5069286;28;20118;-85
2021/10/29 11:29:59;;;;;;;13.95;7.88;;;14.90;96.40;;;;;;5102407;27;20036;-83
2021/10/29 11:32:25;;;;;;;13.13;7.45;;;15.00;96.00;;;;;;5100730;28;20383;-88
2021/10/29 11:34:59;;;;;;;16.58;8.43;;;15.00;96.00;;;;;;5051348;28;20123;-86
2021/10/29 11:37:30;;;;;;;14.25;7.57;;;15.10;96.30;;;;;;5103703;28;20123;-84
2021/10/29 11:39:57;;;;;;;10.57;7.25;;;15.10;96.00;;;;;;5103716;27;20109;-84
2021/10/29 11:42:23;;;;;;;15.63;7.88;;;15.10;96.00;;;;;;5085016;28;20047;-84
2021/10/29 11:44:50;;;;;;;11.30;7.65;;;15.10;96.20;;;;;;5099283;28;20406;-81
2021/10/29 11:47:16;;;;;;;12.52;7.90;;;15.20;95.80;;;;;;5081243;28;20085;-83
2021/10/29 11:49:42;;;;;;;12.02;6.90;;;15.20;95.20;;;;;;5034001;28;20036;-86
2021/10/29 11:52:09;;;;;;;16.35;8.32;;;15.30;95.50;;;;;;5081840;28;20032;-84
2021/10/29 11:54:41;;;;;;;15.15;8.10;;;15.30;95.50;;;;;;5047926;28;20917;-82
2021/10/29 12:00:34;;;;;;;13.30;7.70;;;15.40;95.50;;;;;;5007158;28;20053;-86
2021/10/29 12:05:58;;;;;;;18.58;7.55;;;15.70;95.40;;;;;;5060647;28;20115;-85
2021/10/29 12:08:26;;;;;;;9.05;7.00;;;15.70;94.20;;;;;;5065927;28;20036;-86
2021/10/29 12:11:03;;;;;;;10.18;6.75;;;15.70;94.50;;;;;;5029440;28;20071;-84
2021/10/29 12:13:29;;;;;;;15.10;6.80;;;15.80;94.70;;;;;;5064104;28;20047;-87
2021/10/29 12:15:56;;;;;;;9.50;6.40;;;15.90;94.20;;;;;;5089766;28;20066;-86
2021/10/29 12:18:32;;;;;;;12.63;6.82;;;16.00;94.30;;;;;;5067062;28;20578;-87
2021/10/29 12:20:58;;;;;;;15.27;6.68;;;16.10;93.50;;;;;;5088140;28;20092;-84
2021/10/29 12:23:27;;;;;;;12.60;6.78;;;16.20;92.30;;;;;;5029395;28;20096;-88
2021/10/29 12:26:06;;;;;;;14.13;6.32;;;16.30;91.80;;;;;;5053691;28;20043;-84
2021/10/29 12:28:38;;;;;;;10.57;6.25;;;16.30;91.80;;;;;;5073444;28;20574;-84
2021/10/29 12:31:17;;;;;;;11.73;6.15;;;16.30;91.40;;;;;;5105823;27;20032;-87
2021/10/29 12:34:03;;;;;;;13.10;5.80;;;16.30;91.20;;;;;;5083907;28;20039;-86
2021/10/29 12:39:20;;;;;;;11.55;5.63;;;16.30;90.90;;;;;;5066135;28;20047;-86
2021/10/29 13:03:57;;;;;;;9.70;5.25;;;16.20;90.30;;;;;;5068984;28;20050;-86
2021/10/29 13:06:28;;;;;;;13.82;5.53;;;16.20;90.70;;;;;;5070472;28;20216;-84
2021/10/29 13:08:54;;;;;;;7.85;5.07;;;16.20;91.00;;;;;;5060363;28;20047;-86
2021/10/29 13:11:21;;;;;;;11.88;5.32;;;16.20;90.50;;;;;;5102810;27;20537;-84
2021/10/29 13:14:05;;;;;;;9.52;4.80;;;16.30;90.70;;;;;;5023120;28;20070;-85
2021/10/29 13:16:34;;;;;;;11.00;5.72;;;16.30;90.50;;;;;;5076525;28;20100;-85
2021/10/29 13:34:55;;;;;;;10.27;4.82;;;16.60;89.10;;;;;;5051834;28;20048;-85
2021/10/29 13:53:46;;;;;;;10.70;5.28;;;16.40;90.80;;;;;;5057461;28;20498;-86
2021/10/29 14:01:49;;;;;;;10.57;5.88;;;16.10;90.90;;;;;;5096638;27;20039;-85
2021/10/29 14:31:34;;;;;;;13.38;5.60;;;16.10;90.90;;;;;;5065160;28;20470;-84
2021/10/29 14:34:17;;;;;;;11.23;5.43;;;16.20;91.40;;;;;;5066928;28;20487;-82
2021/10/29 14:39:23;;;;;;;10.07;5.25;;;16.20;90.60;;;;;;5042698;28;20103;-85
2021/10/29 14:44:34;;;;;;;9.82;5.15;;;16.30;90.50;;;;;;5043430;28;20041;-87
2021/10/29 14:47:42;;;;;;;8.30;4.82;;;16.30;90.70;;;;;;5063832;28;20033;-86
2021/10/29 14:50:21;;;;;;;10.98;5.47;;;16.30;90.40;;;;;;5028966;28;20036;-84
2021/10/29 15:25:16;;;;;;;11.20;4.63;;;15.90;90.10;;;;;;5056362;28;20488;-84
2021/10/29 15:30:49;;;;;;;12.95;4.45;;;15.80;90.00;;;;;;5077724;28;20033;-84
2021/10/29 15:41:16;;;;;;;8.98;4.50;;;15.60;89.40;;;;;;5042218;28;20062;-84
2021/10/29 15:52:00;;;;;;;8.20;4.30;;;15.30;90.10;;;;;;5078368;28;20047;-84
2021/10/29 15:54:26;;;;;;;7.75;4.40;;;15.30;90.00;;;;;;5059137;28;20064;-82
2021/10/29 15:57:01;;;;;;;12.75;4.60;;;15.20;90.00;;;;;;5027958;28;20076;-83
2021/10/29 16:18:22;;;;;;;17.70;4.70;;;14.80;92.50;;;;;;5031665;28;20037;-84
2021/10/29 16:20:48;;;;;;;10.30;4.18;;;14.70;93.00;;;;;;5034732;28;20033;-83
2021/10/29 16:23:14;;;;;;;10.32;4.93;;;14.60;93.40;;;;;;5013027;28;20044;-85
2021/10/29 16:25:51;;;;;;;7.28;4.90;;;14.50;93.80;;;;;;5033361;28;20450;-85
2021/10/29 16:28:20;;;;;;;8.60;5.32;;;14.50;94.00;;;;;;5047643;28;20484;-86
2021/10/29 16:30:46;;;;;;;11.48;5.47;;;14.40;94.40;;;;;;5027178;28;20033;-84
2021/10/29 16:33:25;;;;;;;7.18;5.40;;;14.40;94.70;;;;;;5043833;28;20484;-86
2021/10/29 16:36:01;;;;;;;8.07;5.30;;;14.30;95.10;;;;;;5042585;28;20095;-85
2021/10/29 16:38:41;;;;;;;12.90;6.57;;;14.30;95.20;;;;;;5028991;28;20114;-84
2021/10/29 16:41:14;;;;;;;12.60;5.60;;;14.20;95.40;;;;;;5029032;28;20048;-85
2021/10/29 16:44:04;;;;;;;11.05;6.45;;;14.20;95.60;;;;;;5071363;28;20483;-84
2021/10/29 16:46:38;;;;;;;10.52;6.20;;;14.20;95.70;;;;;;5045348;28;20057;-85
2021/10/29 16:49:15;;;;;;;13.70;5.60;;;14.20;95.70;;;;;;5056932;28;20124;-84
2021/10/29 16:51:44;;;;;;;9.43;5.35;;;14.20;95.60;;;;;;5044164;28;20104;-83
2021/10/29 16:54:18;;;;;;;12.27;6.25;;;14.10;95.70;;;;;;5059292;28;20048;-84
2021/10/29 16:56:44;;;;;;;9.73;5.85;;;14.20;95.80;;;;;;5029542;28;20065;-82
2021/10/29 16:59:10;;;;;;;12.10;6.40;;;14.10;96.10;;;;;;5056629;28;20091;-85
2021/10/29 17:01:36;;;;;;;7.65;5.38;;;14.10;95.80;;;;;;4996477;28;20090;-85
2021/10/29 17:04:09;;;;;;;9.90;5.55;;;14.10;96.00;;;;;;5025845;28;20446;-84
2021/10/29 17:06:38;;;;;;;9.82;6.03;;;14.10;96.00;;;;;;5013674;28;20036;-83
2021/10/29 17:09:04;;;;;;;11.43;6.40;;;14.10;96.00;;;;;;5023482;22;20159;-85
2021/10/29 17:11:34;;;;;;;12.68;5.80;;;14.10;96.00;;;;;;5038812;28;20065;-82
2021/10/29 17:14:00;;;;;;;11.07;6.10;;;14.10;96.00;;;;;;5013919;28;20056;-84
2021/10/29 17:16:29;;;;;;;12.25;5.80;;;14.00;95.90;;;;;;5008729;28;20094;-84
2021/10/29 17:18:56;;;;;;;9.98;5.57;;;14.00;95.90;;;;;;5006336;28;20041;-85
2021/10/29 17:21:50;;;;;;;16.15;5.88;;;14.00;95.80;;;;;;5009349;28;20158;-84
2021/10/29 17:24:19;;;;;;;12.20;6.20;;;14.10;95.90;;;;;;5012619;28;20041;-85
2021/10/29 17:26:48;;;;;;;8.95;6.03;;;14.00;95.90;;;;;;5012428;28;20052;-85
2021/10/29 17:29:14;;;;;;;8.60;5.40;;;14.00;96.10;;;;;;5035041;28;20124;-84
2021/10/29 17:31:39;;;;;;;9.00;5.22;;;14.00;95.90;;;;;;4998674;28;20502;-84
2021/10/29 17:34:05;;;;;;;11.18;6.15;;;14.00;95.80;;;;;;5011591;28;20041;-85